.
WxDataArchive / Data Records for 2012-09-29
2012-09-28 September 2012 2012-09-30

Data Records for Saturday, 29 September 2012

Time	Temp	Chill	HIndex	Humid	Dewpt	 Wind 	HiWind	WindDir	Rain 	Barom 
-----	----	-----	------	-----	-----	------	------	-------	-----	----- 
00:00	48.9	48.9	48.9	91	46.4	0	0	---	0.00	30.104 
00:05	48.9	48.9	48.9	91	46.4	0	0	---	0.00	30.104 
00:10	48.8	48.8	48.8	91	46.3	0	0	---	0.00	30.104 
00:15	48.8	48.8	48.8	91	46.3	0	0	---	0.00	30.104 
00:20	48.6	48.6	48.6	91	46.1	0	0	---	0.00	30.104 
00:25	48.5	48.5	48.5	91	46.0	0	0	---	0.00	30.104 
00:30	48.3	48.3	48.3	91	45.8	0	0	---	0.00	30.097 
00:35	48.3	48.3	48.3	91	45.8	0	0	---	0.00	30.097 
00:40	48.2	48.2	48.2	92	46.0	0	0	---	0.00	30.097 
00:45	48.0	48.0	48.0	92	45.8	0	0	---	0.00	30.098 
00:50	48.0	48.0	48.0	92	45.8	0	0	---	0.00	30.098 
00:55	48.2	48.2	48.2	92	46.0	0	0	---	0.00	30.098 
01:00	48.2	48.2	48.2	92	46.0	0	0	---	0.00	30.097 
01:05	48.2	48.2	48.2	92	46.0	0	0	---	0.00	30.097 
01:10	48.2	48.2	48.2	92	46.0	0	0	---	0.00	30.097 
01:15	48.2	48.2	48.2	92	46.0	0	0	---	0.00	30.093 
01:20	48.0	48.0	48.0	92	45.8	0	0	---	0.00	30.093 
01:25	48.2	48.2	48.2	92	46.0	0	0	---	0.00	30.093 
01:30	48.3	48.3	48.3	93	46.4	0	0	---	0.00	30.091 
01:35	48.3	48.3	48.3	92	46.1	0	0	---	0.00	30.091 
01:40	48.2	48.2	48.2	92	46.0	0	0	---	0.00	30.091 
01:45	48.2	48.2	48.2	93	46.3	0	0	---	0.00	30.090 
01:50	48.2	48.2	48.2	93	46.3	0	0	---	0.00	30.090 
01:55	48.2	48.2	48.2	93	46.3	0	0	---	0.00	30.090 
02:00	48.2	48.2	48.2	93	46.3	0	0	---	0.00	30.092 
02:05	48.2	48.2	48.2	93	46.3	0	0	---	0.00	30.092 
02:10	48.2	48.2	48.2	93	46.3	0	0	---	0.00	30.092 
02:15	48.2	48.2	48.2	93	46.3	0	0	---	0.00	30.095 
02:20	48.0	48.0	48.0	93	46.1	0	0	---	0.00	30.095 
02:25	47.9	47.9	47.9	93	46.0	0	0	---	0.00	30.095 
02:30	47.7	47.7	47.7	93	45.8	0	0	---	0.00	30.095 
02:35	47.7	47.7	47.7	93	45.8	0	0	---	0.00	30.095 
02:40	47.6	47.6	47.6	93	45.7	0	0	---	0.00	30.095 
02:45	47.4	47.4	47.4	92	45.2	0	0	---	0.00	30.096 
02:50	47.3	47.3	47.3	92	45.1	0	0	---	0.00	30.096 
02:55	47.0	47.0	47.0	92	44.8	0	0	---	0.00	30.096 
03:00	47.0	47.0	47.0	93	45.1	0	0	---	0.00	30.089 
03:05	46.8	46.8	46.8	93	44.9	0	0	---	0.00	30.089 
03:10	46.8	46.8	46.8	93	44.9	0	0	---	0.00	30.089 
03:15	46.7	46.7	46.7	93	44.8	0	0	---	0.00	30.088 
03:20	46.7	46.7	46.7	93	44.8	0	0	---	0.00	30.088 
03:25	46.5	46.5	46.5	93	44.6	0	0	---	0.00	30.088 
03:30	46.4	46.4	46.4	93	44.5	0	0	---	0.00	30.089 
03:35	46.4	46.4	46.4	93	44.5	0	0	---	0.00	30.089 
03:40	46.4	46.4	46.4	93	44.5	0	0	---	0.00	30.089 
03:45	46.4	46.4	46.4	93	44.5	0	0	---	0.00	30.090 
03:50	46.2	46.2	46.2	93	44.3	0	0	---	0.00	30.090 
03:55	46.2	46.2	46.2	93	44.3	0	0	---	0.00	30.090 
04:00	46.1	46.1	46.1	93	44.2	0	0	---	0.00	30.091 
04:05	46.1	46.1	46.1	93	44.2	0	0	---	0.00	30.091 
04:10	46.0	46.0	46.0	93	44.1	0	0	---	0.00	30.091 
04:15	46.0	46.0	46.0	93	44.1	0	0	---	0.00	30.092 
04:20	46.0	46.0	46.0	93	44.1	0	0	---	0.00	30.092 
04:25	45.8	45.8	45.8	93	43.9	0	0	---	0.00	30.092 
04:30	45.7	45.7	45.7	93	43.8	0	0	---	0.00	30.090 
04:35	45.7	45.7	45.7	93	43.8	0	0	---	0.00	30.090 
04:40	45.5	45.5	45.5	93	43.6	0	0	---	0.00	30.090 
04:45	45.5	45.5	45.5	93	43.6	0	0	---	0.00	30.088 
04:50	45.4	45.4	45.4	93	43.5	0	0	---	0.00	30.088 
04:55	45.4	45.4	45.4	93	43.5	0	0	---	0.00	30.088 
05:00	45.4	45.4	45.4	93	43.5	0	0	---	0.00	30.088 
05:05	45.4	45.4	45.4	93	43.5	0	0	---	0.00	30.088 
05:10	45.4	45.4	45.4	93	43.5	0	0	---	0.00	30.088 
05:15	45.4	45.4	45.4	94	43.8	0	0	---	0.00	30.083 
05:20	45.4	45.4	45.4	93	43.5	0	0	---	0.00	30.083 
05:25	45.2	45.2	45.2	93	43.3	0	0	---	0.00	30.083 
05:30	45.1	45.1	45.1	93	43.2	0	0	---	0.00	30.086 
05:35	44.9	44.9	44.9	93	43.0	0	0	---	0.00	30.086 
05:40	44.8	44.8	44.8	93	42.9	0	0	---	0.00	30.086 
05:45	44.8	44.8	44.8	94	43.2	0	0	---	0.00	30.081 
05:50	44.8	44.8	44.8	94	43.2	0	0	---	0.00	30.081 
05:55	44.8	44.8	44.8	94	43.2	0	0	---	0.00	30.081 
06:00	44.8	44.8	44.8	94	43.2	0	0	---	0.00	30.078 
06:05	44.9	44.9	44.9	94	43.3	0	0	---	0.00	30.078 
06:10	44.9	44.9	44.9	94	43.3	0	0	---	0.00	30.078 
06:15	44.8	44.8	44.8	94	43.2	0	0	---	0.00	30.078 
06:20	44.8	44.8	44.8	94	43.2	0	0	---	0.00	30.078 
06:25	44.6	44.6	44.6	94	43.0	0	0	---	0.00	30.078 
06:30	44.6	44.6	44.6	94	43.0	0	0	---	0.00	30.080 
06:35	44.6	44.6	44.6	94	43.0	0	0	---	0.00	30.080 
06:40	44.5	44.5	44.5	94	42.9	0	0	---	0.00	30.080 
06:45	44.5	44.5	44.5	94	42.9	0	0	---	0.00	30.083 
06:50	44.3	44.3	44.3	94	42.7	0	0	---	0.00	30.083 
06:55	44.3	44.3	44.3	94	42.7	0	0	---	0.00	30.083 
07:00	44.3	44.3	44.3	94	42.7	0	0	---	0.00	30.080 
07:05	44.2	44.2	44.2	94	42.6	0	0	---	0.00	30.080 
07:10	44.5	44.5	44.5	94	42.9	0	0	---	0.00	30.080 
07:15	44.6	44.6	44.6	94	43.0	0	0	---	0.00	30.081 
07:20	44.6	44.6	44.6	94	43.0	0	0	---	0.00	30.081 
07:25	44.6	44.6	44.6	94	43.0	0	0	---	0.00	30.081 
07:30	44.5	44.5	44.5	94	42.9	0	0	---	0.00	30.079 
07:35	44.5	44.5	44.5	94	42.9	0	0	---	0.00	30.079 
07:40	44.6	44.6	44.6	94	43.0	0	0	---	0.00	30.079 
07:45	44.8	44.8	44.8	95	43.5	0	0	---	0.00	30.081 
07:50	45.1	45.1	45.1	95	43.8	0	0	---	0.00	30.081 
07:55	45.2	45.2	45.2	95	43.9	0	0	---	0.00	30.081 
08:00	45.2	45.2	45.2	95	43.9	0	0	---	0.00	30.081 
08:05	45.4	45.4	45.4	95	44.1	0	0	---	0.00	30.081 
08:10	45.5	45.5	45.5	95	44.2	0	0	---	0.00	30.081 
08:15	45.7	45.7	45.7	95	44.4	0	0	---	0.00	30.084 
08:20	45.8	45.8	45.8	95	44.4	0	0	---	0.00	30.084 
08:25	46.1	46.1	46.1	95	44.7	0	0	---	0.00	30.084 
08:30	46.4	46.4	46.4	95	45.0	0	0	---	0.00	30.084 
08:35	46.7	46.7	46.7	95	45.3	0	0	---	0.00	30.084 
08:40	47.0	47.0	47.0	95	45.6	0	0	---	0.00	30.084 
08:45	47.4	47.4	47.4	95	46.0	0	0	---	0.00	30.083 
08:50	47.7	47.7	47.7	95	46.3	0	0	---	0.00	30.083 
08:55	48.2	48.2	48.2	95	46.8	0	1	112	0.00	30.083 
09:00	48.5	48.5	48.5	95	47.1	0	1	112	0.00	30.083 
09:05	48.8	48.8	48.8	95	47.4	0	1	112	0.00	30.083 
09:10	49.1	49.1	49.1	95	47.7	0	1	112	0.00	30.083 
09:15	49.4	49.4	49.4	95	48.0	0	1	112	0.00	30.093 
09:20	49.6	49.6	49.6	95	48.2	0	0	---	0.00	30.093 
09:25	50.1	50.1	50.1	95	48.7	0	2	112	0.00	30.093 
09:30	50.5	50.5	50.5	94	48.8	0	2	112	0.00	30.095 
09:35	51.0	51.0	51.0	94	49.3	0	3	112	0.00	30.095 
09:40	51.6	51.6	51.6	93	49.6	0	1	112	0.00	30.095 
09:45	52.2	52.2	52.2	92	49.9	0	2	112	0.00	30.088 
09:50	52.6	52.6	52.6	91	50.0	1	3	112	0.00	30.088 
09:55	53.2	53.2	53.2	89	50.0	0	2	112	0.00	30.088 
10:00	53.8	53.8	53.8	88	50.3	0	2	112	0.00	30.092 
10:05	54.4	54.4	54.4	86	50.3	0	2	112	0.00	30.092 
10:10	55.0	55.0	55.0	83	49.9	0	2	112	0.00	30.092 
10:15	55.4	55.4	55.4	81	49.7	0	2	112	0.00	30.094 
10:20	55.9	55.9	55.9	77	48.8	0	2	338	0.00	30.094 
10:25	56.7	56.7	56.7	76	49.2	1	3	315	0.00	30.094 
10:30	57.2	57.2	57.2	73	48.6	1	4	292	0.00	30.094 
10:35	57.0	57.0	57.0	72	48.1	1	3	292	0.00	30.094 
10:40	57.5	57.5	57.5	72	48.5	0	2	292	0.00	30.094 
10:45	57.6	57.6	57.6	73	49.0	0	1	292	0.00	30.087 
10:50	58.3	58.3	58.3	72	49.3	0	2	292	0.00	30.087 
10:55	59.2	59.2	59.2	70	49.4	0	2	292	0.00	30.087 
11:00	59.9	59.9	59.9	67	48.9	1	2	292	0.00	30.076 
11:05	60.4	60.4	60.4	63	47.7	1	3	292	0.00	30.076 
11:10	60.7	60.7	60.7	62	47.6	1	4	270	0.00	30.076 
11:15	60.9	60.9	60.9	61	47.4	1	2	270	0.00	30.078 
11:20	61.3	61.3	61.3	59	46.8	1	3	270	0.00	30.078 
11:25	62.0	62.0	62.0	60	48.0	0	2	270	0.00	30.078 
11:30	62.1	62.1	62.1	56	46.2	1	3	292	0.00	30.085 
11:35	61.8	61.8	61.8	56	45.9	1	3	292	0.00	30.085 
11:40	61.5	61.5	61.5	57	46.1	0	1	292	0.00	30.085 
11:45	61.2	61.2	61.2	56	45.4	0	1	292	0.00	30.074 
11:50	61.6	61.6	61.6	56	45.7	1	3	292	0.00	30.074 
11:55	62.3	62.3	62.3	57	46.9	0	3	292	0.00	30.074 
12:00	62.9	62.9	62.9	53	45.5	2	4	292	0.00	30.070 
12:05	63.4	63.4	63.4	54	46.5	1	2	315	0.00	30.070 
12:10	63.7	63.7	63.7	51	45.2	1	3	315	0.00	30.070 
12:15	64.0	64.0	64.0	50	45.0	1	3	315	0.00	30.060 
12:20	64.5	64.5	64.5	50	45.4	1	2	315	0.00	30.060 
12:25	65.0	65.0	65.0	50	45.9	0	3	315	0.00	30.060 
12:30	65.6	65.6	65.6	49	45.9	0	2	315	0.00	30.057 
12:35	65.6	65.6	65.6	47	44.8	1	3	315	0.00	30.057 
12:40	65.8	65.8	65.8	46	44.4	2	4	315	0.00	30.057 
12:45	65.8	65.8	65.8	44	43.3	2	4	292	0.00	30.053 
12:50	66.1	66.1	66.1	46	44.7	2	4	292	0.00	30.053 
12:55	66.4	66.4	66.4	45	44.4	2	3	270	0.00	30.053 
13:00	66.6	66.6	66.6	46	45.2	1	3	292	0.00	30.043 
13:05	66.9	66.9	66.9	45	44.9	1	3	315	0.00	30.043 
13:10	67.3	67.3	67.3	42	43.4	1	5	292	0.00	30.043 
13:15	67.4	67.4	67.4	43	44.1	0	2	292	0.00	30.040 
13:20	68.1	68.1	68.1	42	44.1	1	3	292	0.00	30.040 
13:25	68.4	68.4	68.4	38	41.8	1	5	270	0.00	30.040 
13:30	68.6	68.6	68.6	38	42.0	1	3	292	0.00	30.029 
13:35	68.6	68.6	68.6	38	42.0	2	6	292	0.00	30.029 
13:40	68.8	68.8	68.8	39	42.8	1	4	270	0.00	30.029 
13:45	68.9	68.9	68.9	37	41.5	2	4	292	0.00	30.021 
13:50	69.1	69.1	69.1	38	42.4	1	3	292	0.00	30.021 
13:55	69.3	69.3	69.3	36	41.2	2	3	292	0.00	30.021 
14:00	69.1	69.1	69.1	35	40.3	2	4	292	0.00	30.010 
14:05	69.1	69.1	69.1	36	41.0	1	3	292	0.00	30.010 
14:10	69.4	69.4	69.4	33	39.0	1	3	292	0.00	30.010 
14:15	69.6	69.6	69.6	34	40.0	0	3	292	0.00	30.004 
14:20	69.8	69.8	69.8	32	38.6	1	3	292	0.00	30.004 
14:25	70.1	70.1	70.1	32	38.9	1	3	315	0.00	30.004 
14:30	70.3	70.3	70.3	30	37.4	2	5	292	0.00	29.995 
14:35	70.4	70.4	70.4	31	38.3	1	4	292	0.00	29.995 
14:40	70.8	70.8	70.8	33	40.3	1	3	292	0.00	29.995 
14:45	70.9	70.9	70.9	32	39.6	1	4	68	0.00	29.989 
14:50	70.9	70.9	70.9	27	35.2	2	3	292	0.00	29.989 
14:55	70.8	70.8	70.8	30	37.8	1	5	292	0.00	29.989 
15:00	70.8	70.8	70.8	31	38.7	1	3	315	0.00	29.981 
15:05	70.9	70.9	70.9	30	37.9	2	6	315	0.00	29.981 
15:10	71.1	71.1	71.1	30	38.1	1	3	315	0.00	29.981 
15:15	71.3	71.3	71.3	31	39.1	1	3	315	0.00	29.978 
15:20	71.3	71.3	71.3	29	37.4	1	3	270	0.00	29.978 
15:25	71.5	71.5	71.5	31	39.3	0	2	270	0.00	29.978 
15:30	71.6	71.6	71.6	31	39.4	1	4	270	0.00	29.973 
15:35	71.8	71.8	71.8	32	40.3	0	2	315	0.00	29.973 
15:40	71.6	71.6	71.6	30	38.5	1	4	292	0.00	29.973 
15:45	71.5	71.5	71.5	33	40.9	0	2	292	0.00	29.966 
15:50	71.5	71.5	71.5	30	38.4	1	3	315	0.00	29.966 
15:55	71.3	71.3	71.3	31	39.1	1	4	315	0.00	29.966 
16:00	71.1	71.1	71.1	31	38.9	0	3	112	0.00	29.963 
16:05	71.3	71.3	71.3	32	39.9	2	4	270	0.00	29.963 
16:10	71.3	71.3	71.3	31	39.1	2	4	270	0.00	29.963 
16:15	71.3	71.3	71.3	32	39.9	0	2	0	0.00	29.961 
16:20	71.3	71.3	71.3	31	39.1	2	5	315	0.00	29.961 
16:25	71.1	71.1	71.1	32	39.7	1	3	292	0.00	29.961 
16:30	71.1	71.1	71.1	33	40.5	1	2	292	0.00	29.956 
16:35	71.1	71.1	71.1	33	40.5	0	2	270	0.00	29.956 
16:40	71.1	71.1	71.1	34	41.3	1	3	270	0.00	29.956 
16:45	71.1	71.1	71.1	34	41.3	1	4	270	0.00	29.953 
16:50	70.9	70.9	70.9	35	41.9	1	3	270	0.00	29.953 
16:55	70.8	70.8	70.8	34	41.0	0	2	270	0.00	29.953 
17:00	70.8	70.8	70.8	33	40.3	0	1	270	0.00	29.947 
17:05	70.9	70.9	70.9	34	41.1	1	3	315	0.00	29.947 
17:10	71.1	71.1	71.1	35	42.0	1	2	338	0.00	29.947 
17:15	71.3	71.3	71.3	35	42.2	0	3	292	0.00	29.948 
17:20	71.3	71.3	71.3	32	39.9	1	4	292	0.00	29.948 
17:25	71.1	71.1	71.1	32	39.7	1	7	270	0.00	29.948 
17:30	70.9	70.9	70.9	32	39.6	0	1	270	0.00	29.947 
17:35	70.8	70.8	70.8	34	41.0	1	3	338	0.00	29.947 
17:40	70.8	70.8	70.8	32	39.5	1	2	338	0.00	29.947 
17:45	70.6	70.6	70.6	34	40.9	1	5	292	0.00	29.946 
17:50	70.4	70.4	70.4	35	41.4	1	3	292	0.00	29.946 
17:55	70.1	70.1	70.1	35	41.2	0	2	292	0.00	29.946 
18:00	69.9	69.9	69.9	36	41.7	0	2	292	0.00	29.947 
18:05	69.9	69.9	69.9	37	42.4	0	1	292	0.00	29.947 
18:10	69.9	69.9	69.9	38	43.1	0	3	292	0.00	29.947 
18:15	69.8	69.8	69.8	39	43.7	0	1	292	0.00	29.946 
18:20	69.6	69.6	69.6	38	42.9	0	2	292	0.00	29.946 
18:25	69.4	69.4	69.4	38	42.7	0	3	292	0.00	29.946 
18:30	69.3	69.3	69.3	39	43.3	0	1	292	0.00	29.947 
18:35	69.1	69.1	69.1	39	43.1	0	1	292	0.00	29.947 
18:40	68.8	68.8	68.8	39	42.8	0	1	292	0.00	29.947 
18:45	68.6	68.6	68.6	41	44.0	0	0	---	0.00	29.946 
18:50	68.3	68.3	68.3	43	44.9	0	1	292	0.00	29.946 
18:55	67.9	67.9	67.9	43	44.6	0	1	292	0.00	29.946 
19:00	67.6	67.6	67.6	43	44.3	0	0	---	0.00	29.946 
19:05	67.1	67.1	67.1	43	43.8	0	1	292	0.00	29.946 
19:10	66.8	66.8	66.8	43	43.6	0	0	---	0.00	29.946 
19:15	66.4	66.4	66.4	44	43.8	0	0	---	0.00	29.948 
19:20	66.0	66.0	66.0	46	44.6	0	0	---	0.00	29.948 
19:25	65.3	65.3	65.3	47	44.5	0	0	---	0.00	29.948 
19:30	64.7	64.7	64.7	47	44.0	0	0	---	0.00	29.946 
19:35	64.2	64.2	64.2	49	44.6	0	0	---	0.00	29.946 
19:40	63.5	63.5	63.5	50	44.5	0	0	---	0.00	29.946 
19:45	63.1	63.1	63.1	50	44.2	0	0	---	0.00	29.950 
19:50	62.6	62.6	62.6	52	44.7	0	0	---	0.00	29.950 
19:55	62.1	62.1	62.1	54	45.3	0	0	---	0.00	29.950 
20:00	61.5	61.5	61.5	55	45.2	0	0	---	0.00	29.952 
20:05	60.7	60.7	60.7	56	44.9	0	0	---	0.00	29.952 
20:10	60.1	60.1	60.1	58	45.3	0	0	---	0.00	29.952 
20:15	59.6	59.6	59.6	59	45.3	0	0	---	0.00	29.948 
20:20	59.0	59.0	59.0	60	45.1	0	0	---	0.00	29.948 
20:25	58.6	58.6	58.6	61	45.2	0	0	---	0.00	29.948 
20:30	58.3	58.3	58.3	62	45.3	0	0	---	0.00	29.948 
20:35	58.0	58.0	58.0	64	45.9	0	0	---	0.00	29.948 
20:40	57.5	57.5	57.5	63	45.0	0	0	---	0.00	29.948 
20:45	57.2	57.2	57.2	64	45.1	0	0	---	0.00	29.950 
20:50	57.0	57.0	57.0	64	44.9	0	0	---	0.00	29.950 
20:55	57.0	57.0	57.0	63	44.5	0	0	---	0.00	29.950 
21:00	57.0	57.0	57.0	62	44.1	0	0	---	0.00	29.952 
21:05	57.0	57.0	57.0	62	44.1	0	0	---	0.00	29.952 
21:10	57.0	57.0	57.0	62	44.1	0	0	---	0.00	29.952 
21:15	56.9	56.9	56.9	62	44.0	0	0	---	0.00	29.948 
21:20	56.7	56.7	56.7	62	43.8	0	0	---	0.00	29.948 
21:25	56.7	56.7	56.7	62	43.8	0	0	---	0.00	29.948 
21:30	56.6	56.6	56.6	63	44.2	0	0	---	0.00	29.943 
21:35	56.5	56.5	56.5	63	44.1	0	0	---	0.00	29.943 
21:40	56.3	56.3	56.3	65	44.7	0	0	---	0.00	29.943 
21:45	56.0	56.0	56.0	64	44.0	0	0	---	0.00	29.945 
21:50	55.7	55.7	55.7	66	44.5	0	0	---	0.00	29.945 
21:55	55.4	55.4	55.4	66	44.2	0	0	---	0.00	29.945 
22:00	55.4	55.4	55.4	65	43.8	0	0	---	0.00	29.948 
22:05	56.2	56.2	56.2	62	43.4	0	0	---	0.00	29.948 
22:10	57.0	57.0	57.0	60	43.3	0	1	292	0.00	29.948 
22:15	57.6	57.6	57.6	58	42.9	0	1	292	0.00	29.940 
22:20	58.1	58.1	58.1	57	42.9	0	1	292	0.00	29.940 
22:25	58.4	58.4	58.4	56	42.8	0	0	---	0.00	29.940 
22:30	58.4	58.4	58.4	56	42.8	0	0	---	0.00	29.939 
22:35	58.4	58.4	58.4	56	42.8	0	0	---	0.00	29.939 
22:40	58.1	58.1	58.1	57	42.9	0	0	---	0.00	29.939 
22:45	57.6	57.6	57.6	57	42.5	0	0	---	0.00	29.937 
22:50	57.3	57.3	57.3	58	42.6	0	0	---	0.00	29.937 
22:55	57.0	57.0	57.0	59	42.8	0	0	---	0.00	29.937 
23:00	56.6	56.6	56.6	60	42.9	0	0	---	0.00	29.938 
23:05	56.3	56.3	56.3	61	43.0	0	0	---	0.00	29.938 
23:10	55.9	55.9	55.9	62	43.1	0	0	---	0.00	29.938 
23:15	55.6	55.6	55.6	62	42.8	0	0	---	0.00	29.930 
23:20	55.1	55.1	55.1	64	43.1	0	0	---	0.00	29.930 
23:25	54.8	54.8	54.8	64	42.9	0	0	---	0.00	29.930 
23:30	54.4	54.4	54.4	65	42.9	0	0	---	0.00	29.931 
23:35	53.9	53.9	53.9	66	42.8	0	0	---	0.00	29.931 
23:40	53.5	53.5	53.5	66	42.4	0	0	---	0.00	29.931 
23:45	53.2	53.2	53.2	67	42.5	0	0	---	0.00	29.930 
23:50	52.9	52.9	52.9	69	43.0	0	0	---	0.00	29.930 
23:55	52.6	52.6	52.6	69	42.7	0	0	---	0.00	29.930 

CoCoRaHS
IN-AL-39
A2 Web Hosting
Creative Commons License
GoDaddy
search engine by freefind advanced

loaded 2018-11-15 15:51:39 • last modified 2010-11-18 10:43:29
Privacy PolicyDisclaimer
• wx.awcolley.com is powered by PmWiki v.2002016 •
• all content (unless otherwise noted) © 2018 A W Colley